sensor_id;sensor_type;location;lat;lon;timestamp;pressure;altitude;pressure_sealevel;temperature;humidity
40592;BME280;26301;42.832;23.918;2023-02-17T00:01:22;93974.78;;;-1.19;89.91
40592;BME280;26301;42.832;23.918;2023-02-17T00:03:49;93967.75;;;-1.25;89.05
40592;BME280;26301;42.832;23.918;2023-02-17T00:06:17;93961.09;;;-1.26;89.99
40592;BME280;26301;42.832;23.918;2023-02-17T00:08:43;93946.00;;;-1.27;89.78
40592;BME280;26301;42.832;23.918;2023-02-17T00:11:09;93942.59;;;-1.18;88.85
40592;BME280;26301;42.832;23.918;2023-02-17T00:13:35;93968.56;;;-1.06;88.00
40592;BME280;26301;42.832;23.918;2023-02-17T00:16:06;93967.09;;;-1.09;87.85
40592;BME280;26301;42.832;23.918;2023-02-17T00:18:32;93973.22;;;-1.02;87.74
40592;BME280;26301;42.832;23.918;2023-02-17T00:20:57;93963.84;;;-1.19;88.27
40592;BME280;26301;42.832;23.918;2023-02-17T00:23:23;93962.59;;;-1.15;89.19
40592;BME280;26301;42.832;23.918;2023-02-17T00:25:49;93964.56;;;-1.09;88.62
40592;BME280;26301;42.832;23.918;2023-02-17T00:28:14;93949.91;;;-1.33;89.07
40592;BME280;26301;42.832;23.918;2023-02-17T00:30:40;93945.38;;;-1.29;89.71
40592;BME280;26301;42.832;23.918;2023-02-17T00:33:05;93930.28;;;-1.31;89.17
40592;BME280;26301;42.832;23.918;2023-02-17T00:35:31;93939.56;;;-1.22;89.21
40592;BME280;26301;42.832;23.918;2023-02-17T00:37:56;93931.00;;;-1.21;88.25
40592;BME280;26301;42.832;23.918;2023-02-17T00:40:22;93941.41;;;-1.14;88.27
40592;BME280;26301;42.832;23.918;2023-02-17T00:42:48;93940.28;;;-1.11;88.94
40592;BME280;26301;42.832;23.918;2023-02-17T00:45:14;93916.75;;;-1.22;88.73
40592;BME280;26301;42.832;23.918;2023-02-17T00:47:39;93942.41;;;-1.07;87.83
40592;BME280;26301;42.832;23.918;2023-02-17T00:50:05;93921.75;;;-1.12;88.12
40592;BME280;26301;42.832;23.918;2023-02-17T00:52:31;93869.16;;;-1.46;87.53
40592;BME280;26301;42.832;23.918;2023-02-17T00:54:57;93902.00;;;-1.26;87.44
40592;BME280;26301;42.832;23.918;2023-02-17T00:57:22;93921.97;;;-1.05;86.91
40592;BME280;26301;42.832;23.918;2023-02-17T00:59:48;93908.94;;;-1.10;86.48
40592;BME280;26301;42.832;23.918;2023-02-17T01:02:14;93902.53;;;-1.15;86.46
40592;BME280;26301;42.832;23.918;2023-02-17T01:04:40;93903.50;;;-1.16;85.96
40592;BME280;26301;42.832;23.918;2023-02-17T01:07:05;93918.13;;;-1.09;85.31
40592;BME280;26301;42.832;23.918;2023-02-17T01:09:31;93902.34;;;-1.21;85.51
40592;BME280;26301;42.832;23.918;2023-02-17T01:11:56;93910.22;;;-1.06;85.52
40592;BME280;26301;42.832;23.918;2023-02-17T01:14:22;93890.75;;;-1.24;84.70
40592;BME280;26301;42.832;23.918;2023-02-17T01:16:48;93904.00;;;-1.12;84.41
40592;BME280;26301;42.832;23.918;2023-02-17T01:19:16;93910.41;;;-1.08;84.52
40592;BME280;26301;42.832;23.918;2023-02-17T01:21:43;93901.53;;;-1.04;83.85
40592;BME280;26301;42.832;23.918;2023-02-17T01:24:10;93883.44;;;-1.27;84.75
40592;BME280;26301;42.832;23.918;2023-02-17T01:26:36;93878.53;;;-1.28;84.68
40592;BME280;26301;42.832;23.918;2023-02-17T01:29:04;93889.81;;;-1.23;84.28
40592;BME280;26301;42.832;23.918;2023-02-17T01:31:30;93896.75;;;-1.25;84.34
40592;BME280;26301;42.832;23.918;2023-02-17T01:33:57;93877.34;;;-1.34;84.34
40592;BME280;26301;42.832;23.918;2023-02-17T01:36:23;93892.50;;;-1.24;84.71
40592;BME280;26301;42.832;23.918;2023-02-17T01:38:49;93890.13;;;-1.26;84.91
40592;BME280;26301;42.832;23.918;2023-02-17T01:41:16;93888.00;;;-1.30;84.68
40592;BME280;26301;42.832;23.918;2023-02-17T01:44:10;93891.56;;;-1.23;84.30
40592;BME280;26301;42.832;23.918;2023-02-17T01:46:37;93890.53;;;-1.30;84.71
40592;BME280;26301;42.832;23.918;2023-02-17T01:49:11;93890.03;;;-1.34;84.78
40592;BME280;26301;42.832;23.918;2023-02-17T01:51:39;93888.34;;;-1.43;85.17
40592;BME280;26301;42.832;23.918;2023-02-17T01:54:12;93885.38;;;-1.56;86.27
40592;BME280;26301;42.832;23.918;2023-02-17T01:56:42;93892.97;;;-1.74;87.38
40592;BME280;26301;42.832;23.918;2023-02-17T01:59:16;93866.03;;;-2.03;89.20
40592;BME280;26301;42.832;23.918;2023-02-17T02:01:43;93889.78;;;-2.04;91.22
40592;BME280;26301;42.832;23.918;2023-02-17T02:04:09;93881.50;;;-2.06;91.76
40592;BME280;26301;42.832;23.918;2023-02-17T02:06:35;93890.97;;;-2.08;92.29
40592;BME280;26301;42.832;23.918;2023-02-17T02:09:10;93879.66;;;-2.04;91.85
40592;BME280;26301;42.832;23.918;2023-02-17T02:11:37;93865.16;;;-2.12;93.29
40592;BME280;26301;42.832;23.918;2023-02-17T02:14:03;93853.56;;;-2.14;92.86
40592;BME280;26301;42.832;23.918;2023-02-17T02:16:53;93870.25;;;-1.94;92.48
40592;BME280;26301;42.832;23.918;2023-02-17T02:27:56;93848.09;;;-2.10;92.64
40592;BME280;26301;42.832;23.918;2023-02-17T02:33:31;93871.84;;;-1.93;92.98
40592;BME280;26301;42.832;23.918;2023-02-17T02:38:30;93863.56;;;-2.13;93.45
40592;BME280;26301;42.832;23.918;2023-02-17T02:41:08;93869.00;;;-2.08;93.53
40592;BME280;26301;42.832;23.918;2023-02-17T02:43:36;93867.00;;;-2.04;93.56
40592;BME280;26301;42.832;23.918;2023-02-17T02:46:02;93846.91;;;-2.15;93.16
40592;BME280;26301;42.832;23.918;2023-02-17T02:48:28;93845.69;;;-2.11;93.08
40592;BME280;26301;42.832;23.918;2023-02-17T02:53:50;93858.03;;;-1.98;92.98
40592;BME280;26301;42.832;23.918;2023-02-17T03:02:11;93846.91;;;-2.15;93.54
40592;BME280;26301;42.832;23.918;2023-02-17T03:07:28;93842.38;;;-2.12;92.10
40592;BME280;26301;42.832;23.918;2023-02-17T03:09:57;93844.31;;;-2.05;91.54
40592;BME280;26301;42.832;23.918;2023-02-17T03:12:24;93843.13;;;-2.01;91.94
40592;BME280;26301;42.832;23.918;2023-02-17T03:14:55;93850.28;;;-1.97;91.45
40592;BME280;26301;42.832;23.918;2023-02-17T03:17:22;93863.97;;;-1.90;91.27
40592;BME280;26301;42.832;23.918;2023-02-17T03:19:47;93837.53;;;-2.05;91.62
40592;BME280;26301;42.832;23.918;2023-02-17T03:22:40;93867.03;;;-1.86;92.02
40592;BME280;26301;42.832;23.918;2023-02-17T03:25:08;93860.72;;;-1.82;91.78
40592;BME280;26301;42.832;23.918;2023-02-17T03:27:34;93871.38;;;-1.78;91.21
40592;BME280;26301;42.832;23.918;2023-02-17T03:29:59;93869.63;;;-1.78;90.70
40592;BME280;26301;42.832;23.918;2023-02-17T03:32:25;93867.81;;;-1.86;90.84
40592;BME280;26301;42.832;23.918;2023-02-17T03:34:50;93865.00;;;-1.82;91.13
40592;BME280;26301;42.832;23.918;2023-02-17T03:37:16;93863.03;;;-1.89;91.12
40592;BME280;26301;42.832;23.918;2023-02-17T03:39:42;93865.56;;;-1.89;90.96
40592;BME280;26301;42.832;23.918;2023-02-17T03:42:07;93846.00;;;-1.96;90.45
40592;BME280;26301;42.832;23.918;2023-02-17T03:44:33;93859.44;;;-1.86;90.19
40592;BME280;26301;42.832;23.918;2023-02-17T03:46:58;93868.75;;;-1.87;89.99
40592;BME280;26301;42.832;23.918;2023-02-17T03:49:24;93852.16;;;-1.99;90.41
40592;BME280;26301;42.832;23.918;2023-02-17T03:51:50;93874.63;;;-1.86;90.35
40592;BME280;26301;42.832;23.918;2023-02-17T03:54:15;93852.13;;;-1.89;90.32
40592;BME280;26301;42.832;23.918;2023-02-17T03:56:41;93873.28;;;-1.80;90.29
40592;BME280;26301;42.832;23.918;2023-02-17T03:59:08;93868.47;;;-1.84;90.13
40592;BME280;26301;42.832;23.918;2023-02-17T04:01:33;93870.56;;;-1.79;90.34
40592;BME280;26301;42.832;23.918;2023-02-17T04:03:59;93860.91;;;-1.93;90.68
40592;BME280;26301;42.832;23.918;2023-02-17T04:06:25;93845.88;;;-1.95;90.72
40592;BME280;26301;42.832;23.918;2023-02-17T04:08:50;93875.13;;;-1.82;90.52
40592;BME280;26301;42.832;23.918;2023-02-17T04:11:16;93856.94;;;-1.96;91.30
40592;BME280;26301;42.832;23.918;2023-02-17T04:13:41;93845.00;;;-2.03;91.05
40592;BME280;26301;42.832;23.918;2023-02-17T04:16:08;93845.00;;;-2.03;92.05
40592;BME280;26301;42.832;23.918;2023-02-17T04:18:34;93846.63;;;-2.12;92.97
40592;BME280;26301;42.832;23.918;2023-02-17T04:21:00;93872.19;;;-2.05;94.11
40592;BME280;26301;42.832;23.918;2023-02-17T04:23:26;93843.09;;;-2.29;95.17
40592;BME280;26301;42.832;23.918;2023-02-17T04:25:51;93870.06;;;-2.10;94.43
40592;BME280;26301;42.832;23.918;2023-02-17T04:28:17;93873.25;;;-2.08;94.39
40592;BME280;26301;42.832;23.918;2023-02-17T04:30:44;93845.63;;;-2.29;95.32
40592;BME280;26301;42.832;23.918;2023-02-17T04:33:11;93871.44;;;-2.16;95.23
40592;BME280;26301;42.832;23.918;2023-02-17T04:35:37;93878.84;;;-2.04;95.02
40592;BME280;26301;42.832;23.918;2023-02-17T04:38:03;93874.25;;;-2.19;95.21
40592;BME280;26301;42.832;23.918;2023-02-17T04:40:30;93874.53;;;-2.22;95.51
40592;BME280;26301;42.832;23.918;2023-02-17T04:42:55;93864.69;;;-2.25;95.36
40592;BME280;26301;42.832;23.918;2023-02-17T04:45:21;93885.56;;;-2.23;96.00
40592;BME280;26301;42.832;23.918;2023-02-17T04:47:47;93868.69;;;-2.32;96.52
40592;BME280;26301;42.832;23.918;2023-02-17T04:50:13;93887.53;;;-2.17;96.61
40592;BME280;26301;42.832;23.918;2023-02-17T04:52:38;93888.09;;;-2.13;96.42
40592;BME280;26301;42.832;23.918;2023-02-17T04:55:05;93864.81;;;-2.26;96.44
40592;BME280;26301;42.832;23.918;2023-02-17T04:57:31;93894.16;;;-2.06;96.88
40592;BME280;26301;42.832;23.918;2023-02-17T04:59:56;93882.47;;;-2.17;97.72
40592;BME280;26301;42.832;23.918;2023-02-17T05:02:22;93899.28;;;-2.16;98.11
40592;BME280;26301;42.832;23.918;2023-02-17T05:04:49;93896.31;;;-2.11;98.14
40592;BME280;26301;42.832;23.918;2023-02-17T05:07:15;93880.50;;;-2.23;97.58
40592;BME280;26301;42.832;23.918;2023-02-17T05:09:41;93903.13;;;-2.12;97.60
40592;BME280;26301;42.832;23.918;2023-02-17T05:12:07;93906.41;;;-2.01;97.78
40592;BME280;26301;42.832;23.918;2023-02-17T05:14:32;93900.97;;;-2.07;96.80
40592;BME280;26301;42.832;23.918;2023-02-17T05:16:58;93905.66;;;-2.12;97.01
40592;BME280;26301;42.832;23.918;2023-02-17T05:19:23;93917.50;;;-2.12;97.13
40592;BME280;26301;42.832;23.918;2023-02-17T05:21:49;93908.72;;;-2.18;97.50
40592;BME280;26301;42.832;23.918;2023-02-17T05:24:16;93891.56;;;-2.24;96.79
40592;BME280;26301;42.832;23.918;2023-02-17T05:26:41;93903.38;;;-2.15;96.97
40592;BME280;26301;42.832;23.918;2023-02-17T05:29:07;93888.38;;;-2.26;96.53
40592;BME280;26301;42.832;23.918;2023-02-17T05:31:33;93923.88;;;-2.08;97.30
40592;BME280;26301;42.832;23.918;2023-02-17T05:33:58;93904.66;;;-2.28;97.66
40592;BME280;26301;42.832;23.918;2023-02-17T05:36:24;93928.03;;;-2.17;97.29
40592;BME280;26301;42.832;23.918;2023-02-17T05:38:49;93934.56;;;-2.14;98.51
40592;BME280;26301;42.832;23.918;2023-02-17T05:41:16;93926.94;;;-2.04;98.60
40592;BME280;26301;42.832;23.918;2023-02-17T05:43:43;93917.91;;;-2.17;98.98
40592;BME280;26301;42.832;23.918;2023-02-17T05:46:08;93927.06;;;-2.06;100.00
40592;BME280;26301;42.832;23.918;2023-02-17T05:48:34;93937.72;;;-2.02;100.00
40592;BME280;26301;42.832;23.918;2023-02-17T05:50:59;93947.00;;;-1.93;100.00
40592;BME280;26301;42.832;23.918;2023-02-17T05:53:26;93938.78;;;-1.95;100.00
40592;BME280;26301;42.832;23.918;2023-02-17T05:55:51;93930.22;;;-1.94;100.00
40592;BME280;26301;42.832;23.918;2023-02-17T05:58:17;93928.50;;;-1.94;99.37
40592;BME280;26301;42.832;23.918;2023-02-17T06:00:43;93940.47;;;-1.86;99.47
40592;BME280;26301;42.832;23.918;2023-02-17T06:03:10;93964.63;;;-1.64;99.18
40592;BME280;26301;42.832;23.918;2023-02-17T06:05:36;93963.53;;;-1.62;98.91
40592;BME280;26301;42.832;23.918;2023-02-17T06:08:02;93942.91;;;-1.67;98.98
40592;BME280;26301;42.832;23.918;2023-02-17T06:10:28;93951.25;;;-1.56;98.66
40592;BME280;26301;42.832;23.918;2023-02-17T06:12:53;93960.34;;;-1.36;97.05
40592;BME280;26301;42.832;23.918;2023-02-17T06:15:19;93971.22;;;-1.26;96.95
40592;BME280;26301;42.832;23.918;2023-02-17T06:17:45;93973.75;;;-1.26;96.67
40592;BME280;26301;42.832;23.918;2023-02-17T06:20:10;93964.13;;;-1.22;96.90
40592;BME280;26301;42.832;23.918;2023-02-17T06:22:37;93959.16;;;-1.14;96.79
40592;BME280;26301;42.832;23.918;2023-02-17T06:25:02;93972.66;;;-1.05;97.41
40592;BME280;26301;42.832;23.918;2023-02-17T06:27:28;93953.84;;;-1.03;97.22
40592;BME280;26301;42.832;23.918;2023-02-17T06:29:53;93974.22;;;-0.77;97.26
40592;BME280;26301;42.832;23.918;2023-02-17T06:32:19;93964.78;;;-0.66;96.66
40592;BME280;26301;42.832;23.918;2023-02-17T06:34:45;93978.81;;;-0.36;96.05
40592;BME280;26301;42.832;23.918;2023-02-17T06:37:10;93960.72;;;-0.33;95.65
40592;BME280;26301;42.832;23.918;2023-02-17T06:39:36;93952.63;;;-0.11;95.82
40592;BME280;26301;42.832;23.918;2023-02-17T06:42:01;93946.69;;;0.07;95.98
40592;BME280;26301;42.832;23.918;2023-02-17T06:44:27;93957.50;;;0.43;95.43
40592;BME280;26301;42.832;23.918;2023-02-17T06:46:53;93976.34;;;0.75;93.90
40592;BME280;26301;42.832;23.918;2023-02-17T06:49:18;93979.28;;;1.04;93.51
40592;BME280;26301;42.832;23.918;2023-02-17T06:51:44;93970.56;;;1.23;94.08
40592;BME280;26301;42.832;23.918;2023-02-17T06:54:09;93983.94;;;1.58;93.48
40592;BME280;26301;42.832;23.918;2023-02-17T06:56:35;93964.84;;;1.62;92.57
40592;BME280;26301;42.832;23.918;2023-02-17T06:59:01;93986.31;;;1.92;89.38
40592;BME280;26301;42.832;23.918;2023-02-17T07:01:26;93985.34;;;2.01;89.60
40592;BME280;26301;42.832;23.918;2023-02-17T07:03:53;93981.00;;;2.18;88.57
40592;BME280;26301;42.832;23.918;2023-02-17T07:06:20;93978.56;;;2.41;89.39
40592;BME280;26301;42.832;23.918;2023-02-17T07:08:45;93968.31;;;2.49;89.01
40592;BME280;26301;42.832;23.918;2023-02-17T07:11:12;93977.16;;;2.70;88.83
40592;BME280;26301;42.832;23.918;2023-02-17T07:13:39;93980.09;;;2.90;86.04
40592;BME280;26301;42.832;23.918;2023-02-17T07:16:06;93989.09;;;3.09;85.90
40592;BME280;26301;42.832;23.918;2023-02-17T07:18:32;93972.16;;;3.16;87.01
40592;BME280;26301;42.832;23.918;2023-02-17T07:20:57;93984.88;;;3.47;84.39
40592;BME280;26301;42.832;23.918;2023-02-17T07:23:23;93969.50;;;3.55;84.00
40592;BME280;26301;42.832;23.918;2023-02-17T07:25:48;93995.56;;;3.88;80.77
40592;BME280;26301;42.832;23.918;2023-02-17T07:28:14;93989.66;;;4.03;82.56
40592;BME280;26301;42.832;23.918;2023-02-17T07:30:40;93940.59;;;4.07;73.67
40592;BME280;26301;42.832;23.918;2023-02-17T07:33:06;93963.06;;;4.56;72.12
40592;BME280;26301;42.832;23.918;2023-02-17T07:35:33;93976.63;;;4.72;71.88
40592;BME280;26301;42.832;23.918;2023-02-17T07:37:59;93980.44;;;4.91;72.69
40592;BME280;26301;42.832;23.918;2023-02-17T07:40:26;93976.94;;;4.98;68.29
40592;BME280;26301;42.832;23.918;2023-02-17T07:42:52;93979.63;;;5.26;68.49
40592;BME280;26301;42.832;23.918;2023-02-17T07:45:17;93997.81;;;5.53;65.45
40592;BME280;26301;42.832;23.918;2023-02-17T07:47:43;93998.09;;;5.65;65.80
40592;BME280;26301;42.832;23.918;2023-02-17T07:50:10;93997.50;;;5.84;69.20
40592;BME280;26301;42.832;23.918;2023-02-17T07:52:35;93993.66;;;5.95;66.18
40592;BME280;26301;42.832;23.918;2023-02-17T07:55:01;94005.84;;;6.14;67.22
40592;BME280;26301;42.832;23.918;2023-02-17T07:57:26;94014.50;;;6.13;61.18
40592;BME280;26301;42.832;23.918;2023-02-17T07:59:52;94007.09;;;6.25;62.02
40592;BME280;26301;42.832;23.918;2023-02-17T08:02:18;94004.25;;;6.41;60.46
40592;BME280;26301;42.832;23.918;2023-02-17T08:04:43;93991.81;;;6.38;62.38
40592;BME280;26301;42.832;23.918;2023-02-17T08:07:09;94002.63;;;6.69;52.77
40592;BME280;26301;42.832;23.918;2023-02-17T08:09:34;94008.44;;;6.84;52.74
40592;BME280;26301;42.832;23.918;2023-02-17T08:12:19;94010.16;;;7.18;52.24
40592;BME280;26301;42.832;23.918;2023-02-17T08:15:06;94016.75;;;7.34;51.64
40592;BME280;26301;42.832;23.918;2023-02-17T08:17:33;94013.34;;;7.33;49.37
40592;BME280;26301;42.832;23.918;2023-02-17T08:19:59;94016.75;;;7.41;49.99
40592;BME280;26301;42.832;23.918;2023-02-17T08:22:24;94018.56;;;7.53;52.36
40592;BME280;26301;42.832;23.918;2023-02-17T08:24:50;94007.09;;;7.63;49.83
40592;BME280;26301;42.832;23.918;2023-02-17T08:27:16;94010.91;;;7.80;48.14
40592;BME280;26301;42.832;23.918;2023-02-17T08:29:42;93994.69;;;7.86;47.36
40592;BME280;26301;42.832;23.918;2023-02-17T08:32:08;94013.47;;;8.13;45.84
40592;BME280;26301;42.832;23.918;2023-02-17T08:34:34;94006.94;;;8.17;51.30
40592;BME280;26301;42.832;23.918;2023-02-17T08:37:00;93997.63;;;8.23;49.50
40592;BME280;26301;42.832;23.918;2023-02-17T08:39:27;94009.72;;;8.49;49.38
40592;BME280;26301;42.832;23.918;2023-02-17T08:41:53;94011.09;;;8.58;49.19
40592;BME280;26301;42.832;23.918;2023-02-17T08:44:19;93998.59;;;8.62;45.19
40592;BME280;26301;42.832;23.918;2023-02-17T08:46:49;93997.59;;;8.63;47.51
40592;BME280;26301;42.832;23.918;2023-02-17T08:49:17;94010.25;;;8.78;46.65
40592;BME280;26301;42.832;23.918;2023-02-17T08:51:43;94002.09;;;8.87;43.09
40592;BME280;26301;42.832;23.918;2023-02-17T08:54:09;94011.41;;;8.88;45.68
40592;BME280;26301;42.832;23.918;2023-02-17T08:56:36;94005.22;;;8.96;45.70
40592;BME280;26301;42.832;23.918;2023-02-17T08:59:03;93993.00;;;8.85;42.05
40592;BME280;26301;42.832;23.918;2023-02-17T09:01:29;93995.72;;;9.03;36.96
40592;BME280;26301;42.832;23.918;2023-02-17T09:03:57;93993.91;;;9.04;39.49
40592;BME280;26301;42.832;23.918;2023-02-17T09:06:29;94000.63;;;9.11;37.74
40592;BME280;26301;42.832;23.918;2023-02-17T09:08:55;93997.63;;;9.14;35.29
40592;BME280;26301;42.832;23.918;2023-02-17T09:11:21;94010.09;;;9.24;35.81
40592;BME280;26301;42.832;23.918;2023-02-17T09:13:46;93990.72;;;9.15;36.33
40592;BME280;26301;42.832;23.918;2023-02-17T09:16:12;94006.72;;;9.24;35.15
40592;BME280;26301;42.832;23.918;2023-02-17T09:18:38;93995.59;;;9.30;35.44
40592;BME280;26301;42.832;23.918;2023-02-17T09:21:05;93988.66;;;9.30;35.43
40592;BME280;26301;42.832;23.918;2023-02-17T09:23:31;93991.59;;;9.34;36.05
40592;BME280;26301;42.832;23.918;2023-02-17T09:26:01;93980.13;;;9.23;37.35
40592;BME280;26301;42.832;23.918;2023-02-17T09:28:29;94010.03;;;9.37;37.04
40592;BME280;26301;42.832;23.918;2023-02-17T09:30:55;93973.22;;;9.24;35.76
40592;BME280;26301;42.832;23.918;2023-02-17T09:33:20;93989.34;;;9.44;34.98
40592;BME280;26301;42.832;23.918;2023-02-17T09:35:46;93996.44;;;9.55;35.36
40592;BME280;26301;42.832;23.918;2023-02-17T09:38:14;93974.94;;;9.36;36.75
40592;BME280;26301;42.832;23.918;2023-02-17T09:40:46;93984.19;;;9.51;37.10
40592;BME280;26301;42.832;23.918;2023-02-17T09:43:24;94014.38;;;9.75;38.09
40592;BME280;26301;42.832;23.918;2023-02-17T09:45:54;94007.63;;;9.74;36.94
40592;BME280;26301;42.832;23.918;2023-02-17T09:48:25;93998.56;;;9.65;36.20
40592;BME280;26301;42.832;23.918;2023-02-17T09:51:07;94010.47;;;9.66;36.07
40592;BME280;26301;42.832;23.918;2023-02-17T09:53:41;93992.66;;;9.58;37.12
40592;BME280;26301;42.832;23.918;2023-02-17T09:56:15;94007.38;;;9.82;34.65
40592;BME280;26301;42.832;23.918;2023-02-17T09:58:46;94008.94;;;9.90;34.40
40592;BME280;26301;42.832;23.918;2023-02-17T10:01:17;93997.31;;;9.74;35.56
40592;BME280;26301;42.832;23.918;2023-02-17T10:03:49;94005.03;;;9.81;36.20
40592;BME280;26301;42.832;23.918;2023-02-17T10:06:22;93986.22;;;9.74;34.94
40592;BME280;26301;42.832;23.918;2023-02-17T10:11:44;94007.25;;;10.02;35.45
40592;BME280;26301;42.832;23.918;2023-02-17T10:14:20;94004.69;;;10.02;34.54
40592;BME280;26301;42.832;23.918;2023-02-17T10:17:16;94000.50;;;10.01;36.36
40592;BME280;26301;42.832;23.918;2023-02-17T10:22:21;93991.88;;;10.14;36.12
40592;BME280;26301;42.832;23.918;2023-02-17T10:24:47;93955.16;;;10.12;35.80
40592;BME280;26301;42.832;23.918;2023-02-17T10:27:29;93975.28;;;10.03;38.18
40592;BME280;26301;42.832;23.918;2023-02-17T10:33:05;93992.50;;;10.10;35.20
40592;BME280;26301;42.832;23.918;2023-02-17T10:35:49;93989.81;;;9.98;35.13
40592;BME280;26301;42.832;23.918;2023-02-17T10:38:29;93985.81;;;10.02;35.84
40592;BME280;26301;42.832;23.918;2023-02-17T10:40:59;93969.81;;;9.93;36.07
40592;BME280;26301;42.832;23.918;2023-02-17T10:43:28;93975.88;;;10.05;36.25
40592;BME280;26301;42.832;23.918;2023-02-17T10:45:56;93975.09;;;10.05;35.05
40592;BME280;26301;42.832;23.918;2023-02-17T10:48:39;93986.72;;;10.14;34.99
40592;BME280;26301;42.832;23.918;2023-02-17T10:51:14;93971.78;;;10.16;36.92
40592;BME280;26301;42.832;23.918;2023-02-17T10:53:43;93976.34;;;10.21;35.14
40592;BME280;26301;42.832;23.918;2023-02-17T10:56:26;93975.91;;;10.24;35.79
40592;BME280;26301;42.832;23.918;2023-02-17T10:59:02;93978.38;;;10.12;34.54
40592;BME280;26301;42.832;23.918;2023-02-17T11:01:31;93966.91;;;10.08;35.70
40592;BME280;26301;42.832;23.918;2023-02-17T11:03:59;93968.31;;;10.04;35.10
40592;BME280;26301;42.832;23.918;2023-02-17T11:06:25;93968.25;;;10.11;36.65
40592;BME280;26301;42.832;23.918;2023-02-17T11:08:57;93954.56;;;10.10;36.09
40592;BME280;26301;42.832;23.918;2023-02-17T11:11:26;93940.16;;;10.02;34.54
40592;BME280;26301;42.832;23.918;2023-02-17T11:13:57;93961.63;;;10.21;35.58
40592;BME280;26301;42.832;23.918;2023-02-17T11:16:31;93910.41;;;10.00;36.10
40592;BME280;26301;42.832;23.918;2023-02-17T11:18:57;93949.06;;;10.25;34.16
40592;BME280;26301;42.832;23.918;2023-02-17T11:21:23;93926.50;;;10.20;35.96
40592;BME280;26301;42.832;23.918;2023-02-17T11:23:59;93930.41;;;10.29;35.70
40592;BME280;26301;42.832;23.918;2023-02-17T11:26:28;93947.28;;;10.32;35.45
40592;BME280;26301;42.832;23.918;2023-02-17T11:29:06;93935.50;;;10.36;36.20
40592;BME280;26301;42.832;23.918;2023-02-17T11:31:32;93947.03;;;10.34;35.14
40592;BME280;26301;42.832;23.918;2023-02-17T11:33:58;93945.91;;;10.48;35.89
40592;BME280;26301;42.832;23.918;2023-02-17T11:36:27;93933.34;;;10.51;35.17
40592;BME280;26301;42.832;23.918;2023-02-17T11:38:53;93933.78;;;10.67;33.81
40592;BME280;26301;42.832;23.918;2023-02-17T11:41:20;93921.16;;;10.59;34.25
40592;BME280;26301;42.832;23.918;2023-02-17T11:43:57;93928.28;;;10.63;35.93
40592;BME280;26301;42.832;23.918;2023-02-17T11:46:45;93933.16;;;10.71;35.59
40592;BME280;26301;42.832;23.918;2023-02-17T11:49:51;93928.78;;;10.72;33.50
40592;BME280;26301;42.832;23.918;2023-02-17T11:52:45;93927.25;;;10.64;34.91
40592;BME280;26301;42.832;23.918;2023-02-17T11:55:19;93923.19;;;10.57;35.82
40592;BME280;26301;42.832;23.918;2023-02-17T12:08:20;93912.97;;;10.62;40.89
40592;BME280;26301;42.832;23.918;2023-02-17T12:11:24;93913.47;;;10.52;37.08
40592;BME280;26301;42.832;23.918;2023-02-17T12:13:59;93911.41;;;10.42;41.26
40592;BME280;26301;42.832;23.918;2023-02-17T12:22:45;93885.44;;;10.37;35.55
40592;BME280;26301;42.832;23.918;2023-02-17T12:25:23;93888.50;;;10.46;36.00
40592;BME280;26301;42.832;23.918;2023-02-17T12:36:51;93877.91;;;10.54;35.19
40592;BME280;26301;42.832;23.918;2023-02-17T12:39:27;93866.28;;;10.45;35.88
40592;BME280;26301;42.832;23.918;2023-02-17T12:42:18;93884.44;;;10.57;35.72
40592;BME280;26301;42.832;23.918;2023-02-17T12:44:58;93870.72;;;10.56;34.97
40592;BME280;26301;42.832;23.918;2023-02-17T12:50:05;93858.25;;;10.53;34.64
40592;BME280;26301;42.832;23.918;2023-02-17T12:52:38;93866.00;;;10.53;40.60
40592;BME280;26301;42.832;23.918;2023-02-17T13:00:41;93847.78;;;10.29;35.95
40592;BME280;26301;42.832;23.918;2023-02-17T13:03:08;93858.38;;;10.40;37.05
40592;BME280;26301;42.832;23.918;2023-02-17T13:10:44;93844.75;;;10.14;44.26
40592;BME280;26301;42.832;23.918;2023-02-17T13:15:44;93853.22;;;10.40;35.43
40592;BME280;26301;42.832;23.918;2023-02-17T13:21:00;93845.03;;;10.24;41.88
40592;BME280;26301;42.832;23.918;2023-02-17T13:23:35;93839.84;;;10.06;42.07
40592;BME280;26301;42.832;23.918;2023-02-17T13:28:48;93837.69;;;10.03;41.87
40592;BME280;26301;42.832;23.918;2023-02-17T13:31:23;93842.84;;;9.84;43.57
40592;BME280;26301;42.832;23.918;2023-02-17T13:33:56;93852.94;;;9.86;43.26
40592;BME280;26301;42.832;23.918;2023-02-17T13:38:57;93846.91;;;9.74;43.42
40592;BME280;26301;42.832;23.918;2023-02-17T13:41:25;93845.53;;;9.71;42.53
40592;BME280;26301;42.832;23.918;2023-02-17T13:43:51;93837.66;;;9.66;43.33
40592;BME280;26301;42.832;23.918;2023-02-17T13:46:23;93828.63;;;9.57;45.45
40592;BME280;26301;42.832;23.918;2023-02-17T13:49:04;93843.34;;;9.50;43.32
40592;BME280;26301;42.832;23.918;2023-02-17T13:51:31;93852.25;;;9.54;44.54
40592;BME280;26301;42.832;23.918;2023-02-17T13:54:07;93842.16;;;9.71;40.28
40592;BME280;26301;42.832;23.918;2023-02-17T13:56:32;93829.75;;;9.61;41.83
40592;BME280;26301;42.832;23.918;2023-02-17T13:59:16;93844.53;;;9.72;40.90
40592;BME280;26301;42.832;23.918;2023-02-17T14:01:43;93822.22;;;9.59;40.14
40592;BME280;26301;42.832;23.918;2023-02-17T14:04:25;93844.41;;;9.85;38.72
40592;BME280;26301;42.832;23.918;2023-02-17T14:06:51;93848.22;;;10.01;38.85
40592;BME280;26301;42.832;23.918;2023-02-17T14:09:27;93856.34;;;10.05;39.21
40592;BME280;26301;42.832;23.918;2023-02-17T14:11:55;93843.28;;;10.00;39.16
40592;BME280;26301;42.832;23.918;2023-02-17T14:14:30;93855.19;;;10.19;38.81
40592;BME280;26301;42.832;23.918;2023-02-17T14:17:01;93834.25;;;10.09;39.70
40592;BME280;26301;42.832;23.918;2023-02-17T14:19:28;93850.41;;;10.23;38.18
40592;BME280;26301;42.832;23.918;2023-02-17T14:24:29;93843.22;;;10.06;39.13
40592;BME280;26301;42.832;23.918;2023-02-17T14:27:14;93846.88;;;9.99;38.21